sensor_id;sensor_type;location;lat;lon;timestamp;P1;durP1;ratioP1;P2;durP2;ratioP2
56051;SDS011;41919;42.648;23.384;2022-09-09T00:00:49;7.60;;;6.05;;
56051;SDS011;41919;42.648;23.384;2022-09-09T00:11:41;7.25;;;6.47;;
56051;SDS011;41919;42.648;23.384;2022-09-09T00:20:43;9.18;;;6.53;;
56051;SDS011;41919;42.648;23.384;2022-09-09T00:28:53;6.22;;;5.63;;
56051;SDS011;41919;42.648;23.384;2022-09-09T00:31:32;7.45;;;6.22;;
56051;SDS011;41919;42.648;23.384;2022-09-09T00:33:58;8.13;;;6.20;;
56051;SDS011;41919;42.648;23.384;2022-09-09T00:36:29;6.90;;;6.20;;
56051;SDS011;41919;42.648;23.384;2022-09-09T00:38:59;6.78;;;5.93;;
56051;SDS011;41919;42.648;23.384;2022-09-09T00:41:49;7.72;;;6.38;;
56051;SDS011;41919;42.648;23.384;2022-09-09T00:44:30;7.80;;;6.38;;
56051;SDS011;41919;42.648;23.384;2022-09-09T00:49:51;7.38;;;6.63;;
56051;SDS011;41919;42.648;23.384;2022-09-09T00:57:46;7.65;;;6.40;;
56051;SDS011;41919;42.648;23.384;2022-09-09T01:10:47;8.13;;;6.30;;
56051;SDS011;41919;42.648;23.384;2022-09-09T01:13:22;7.47;;;6.68;;
56051;SDS011;41919;42.648;23.384;2022-09-09T01:15:50;8.45;;;6.60;;
56051;SDS011;41919;42.648;23.384;2022-09-09T01:18:19;7.05;;;6.35;;
56051;SDS011;41919;42.648;23.384;2022-09-09T01:24:04;8.70;;;6.32;;
56051;SDS011;41919;42.648;23.384;2022-09-09T01:26:35;7.35;;;5.88;;
56051;SDS011;41919;42.648;23.384;2022-09-09T01:29:22;8.35;;;6.00;;
56051;SDS011;41919;42.648;23.384;2022-09-09T01:34:19;8.07;;;7.07;;
56051;SDS011;41919;42.648;23.384;2022-09-09T01:36:47;7.28;;;6.45;;
56051;SDS011;41919;42.648;23.384;2022-09-09T01:39:35;9.70;;;6.57;;
56051;SDS011;41919;42.648;23.384;2022-09-09T01:42:03;9.55;;;7.00;;
56051;SDS011;41919;42.648;23.384;2022-09-09T01:44:31;8.77;;;6.72;;
56051;SDS011;41919;42.648;23.384;2022-09-09T01:46:57;8.15;;;7.35;;
56051;SDS011;41919;42.648;23.384;2022-09-09T01:49:23;7.63;;;6.75;;
56051;SDS011;41919;42.648;23.384;2022-09-09T01:51:49;9.93;;;6.82;;
56051;SDS011;41919;42.648;23.384;2022-09-09T01:54:20;8.65;;;6.53;;
56051;SDS011;41919;42.648;23.384;2022-09-09T01:57:00;8.00;;;6.28;;
56051;SDS011;41919;42.648;23.384;2022-09-09T01:59:54;8.57;;;6.50;;
56051;SDS011;41919;42.648;23.384;2022-09-09T02:02:39;8.57;;;6.57;;
56051;SDS011;41919;42.648;23.384;2022-09-09T02:07:54;7.78;;;6.32;;
56051;SDS011;41919;42.648;23.384;2022-09-09T02:13:32;7.43;;;6.15;;
56051;SDS011;41919;42.648;23.384;2022-09-09T02:16:10;10.05;;;7.07;;
56051;SDS011;41919;42.648;23.384;2022-09-09T02:21:28;11.65;;;6.95;;
56051;SDS011;41919;42.648;23.384;2022-09-09T02:23:55;8.70;;;6.57;;
56051;SDS011;41919;42.648;23.384;2022-09-09T02:26:25;8.25;;;6.07;;
56051;SDS011;41919;42.648;23.384;2022-09-09T02:28:52;7.25;;;6.53;;
56051;SDS011;41919;42.648;23.384;2022-09-09T02:31:23;8.73;;;7.07;;
56051;SDS011;41919;42.648;23.384;2022-09-09T02:33:56;7.95;;;6.20;;
56051;SDS011;41919;42.648;23.384;2022-09-09T02:36:26;10.23;;;7.30;;
56051;SDS011;41919;42.648;23.384;2022-09-09T02:38:56;8.57;;;6.97;;
56051;SDS011;41919;42.648;23.384;2022-09-09T02:41:32;10.27;;;7.30;;
56051;SDS011;41919;42.648;23.384;2022-09-09T02:43:59;7.25;;;6.10;;
56051;SDS011;41919;42.648;23.384;2022-09-09T02:49:10;11.40;;;7.40;;
56051;SDS011;41919;42.648;23.384;2022-09-09T02:57:02;7.75;;;6.70;;
56051;SDS011;41919;42.648;23.384;2022-09-09T02:59:35;9.48;;;6.47;;
56051;SDS011;41919;42.648;23.384;2022-09-09T03:02:02;8.38;;;6.35;;
56051;SDS011;41919;42.648;23.384;2022-09-09T03:04:27;8.32;;;6.82;;
56051;SDS011;41919;42.648;23.384;2022-09-09T03:06:53;9.18;;;6.93;;
56051;SDS011;41919;42.648;23.384;2022-09-09T03:09:19;9.73;;;6.82;;
56051;SDS011;41919;42.648;23.384;2022-09-09T03:11:44;9.63;;;7.07;;
56051;SDS011;41919;42.648;23.384;2022-09-09T03:14:10;10.10;;;6.78;;
56051;SDS011;41919;42.648;23.384;2022-09-09T03:16:36;9.20;;;7.20;;
56051;SDS011;41919;42.648;23.384;2022-09-09T03:19:01;9.85;;;7.88;;
56051;SDS011;41919;42.648;23.384;2022-09-09T03:21:27;9.73;;;8.20;;
56051;SDS011;41919;42.648;23.384;2022-09-09T03:23:53;12.65;;;8.05;;
56051;SDS011;41919;42.648;23.384;2022-09-09T03:26:18;11.85;;;7.90;;
56051;SDS011;41919;42.648;23.384;2022-09-09T03:28:45;12.60;;;8.60;;
56051;SDS011;41919;42.648;23.384;2022-09-09T03:31:10;9.85;;;8.10;;
56051;SDS011;41919;42.648;23.384;2022-09-09T03:33:36;13.90;;;8.10;;
56051;SDS011;41919;42.648;23.384;2022-09-09T03:36:02;12.27;;;8.93;;
56051;SDS011;41919;42.648;23.384;2022-09-09T03:38:28;10.18;;;8.20;;
56051;SDS011;41919;42.648;23.384;2022-09-09T03:40:54;16.08;;;8.70;;
56051;SDS011;41919;42.648;23.384;2022-09-09T03:43:25;13.48;;;8.75;;
56051;SDS011;41919;42.648;23.384;2022-09-09T03:45:51;11.05;;;8.48;;
56051;SDS011;41919;42.648;23.384;2022-09-09T03:48:18;13.40;;;8.60;;
56051;SDS011;41919;42.648;23.384;2022-09-09T03:50:47;14.40;;;9.18;;
56051;SDS011;41919;42.648;23.384;2022-09-09T03:53:14;10.93;;;8.60;;
56051;SDS011;41919;42.648;23.384;2022-09-09T03:55:44;11.25;;;8.95;;
56051;SDS011;41919;42.648;23.384;2022-09-09T03:58:12;17.60;;;9.18;;
56051;SDS011;41919;42.648;23.384;2022-09-09T04:00:38;11.82;;;8.43;;
56051;SDS011;41919;42.648;23.384;2022-09-09T04:03:07;10.95;;;8.70;;
56051;SDS011;41919;42.648;23.384;2022-09-09T04:05:33;12.73;;;9.35;;
56051;SDS011;41919;42.648;23.384;2022-09-09T04:07:59;13.68;;;8.13;;
56051;SDS011;41919;42.648;23.384;2022-09-09T04:10:24;10.80;;;8.10;;
56051;SDS011;41919;42.648;23.384;2022-09-09T04:12:50;16.83;;;9.27;;
56051;SDS011;41919;42.648;23.384;2022-09-09T04:15:15;9.82;;;8.35;;
56051;SDS011;41919;42.648;23.384;2022-09-09T04:17:43;9.95;;;8.73;;
56051;SDS011;41919;42.648;23.384;2022-09-09T04:20:09;12.63;;;7.97;;
56051;SDS011;41919;42.648;23.384;2022-09-09T04:22:37;10.90;;;8.13;;
56051;SDS011;41919;42.648;23.384;2022-09-09T04:25:04;8.80;;;7.75;;
56051;SDS011;41919;42.648;23.384;2022-09-09T04:27:31;11.32;;;7.80;;
56051;SDS011;41919;42.648;23.384;2022-09-09T04:29:56;10.35;;;7.13;;
56051;SDS011;41919;42.648;23.384;2022-09-09T04:32:22;8.93;;;7.60;;
56051;SDS011;41919;42.648;23.384;2022-09-09T04:34:48;9.60;;;7.38;;
56051;SDS011;41919;42.648;23.384;2022-09-09T04:37:14;8.20;;;6.72;;
56051;SDS011;41919;42.648;23.384;2022-09-09T04:39:39;11.25;;;6.90;;
56051;SDS011;41919;42.648;23.384;2022-09-09T04:42:04;7.95;;;6.68;;
56051;SDS011;41919;42.648;23.384;2022-09-09T04:44:30;8.38;;;6.28;;
56051;SDS011;41919;42.648;23.384;2022-09-09T04:46:55;9.82;;;6.35;;
56051;SDS011;41919;42.648;23.384;2022-09-09T04:49:21;8.90;;;5.95;;
56051;SDS011;41919;42.648;23.384;2022-09-09T04:51:48;7.32;;;6.20;;
56051;SDS011;41919;42.648;23.384;2022-09-09T04:54:14;8.40;;;6.85;;
56051;SDS011;41919;42.648;23.384;2022-09-09T04:56:40;8.88;;;6.60;;
56051;SDS011;41919;42.648;23.384;2022-09-09T04:59:07;7.43;;;6.63;;
56051;SDS011;41919;42.648;23.384;2022-09-09T05:01:32;7.50;;;6.65;;
56051;SDS011;41919;42.648;23.384;2022-09-09T05:03:58;8.75;;;7.15;;
56051;SDS011;41919;42.648;23.384;2022-09-09T05:06:23;7.35;;;6.13;;
56051;SDS011;41919;42.648;23.384;2022-09-09T05:08:50;7.40;;;6.43;;
56051;SDS011;41919;42.648;23.384;2022-09-09T05:11:17;9.25;;;6.90;;
56051;SDS011;41919;42.648;23.384;2022-09-09T05:13:48;9.55;;;7.22;;
56051;SDS011;41919;42.648;23.384;2022-09-09T05:16:14;8.43;;;6.35;;
56051;SDS011;41919;42.648;23.384;2022-09-09T05:18:40;9.43;;;5.82;;
56051;SDS011;41919;42.648;23.384;2022-09-09T05:21:13;8.60;;;5.88;;
56051;SDS011;41919;42.648;23.384;2022-09-09T05:23:39;8.15;;;5.82;;
56051;SDS011;41919;42.648;23.384;2022-09-09T05:26:05;8.80;;;6.40;;
56051;SDS011;41919;42.648;23.384;2022-09-09T05:28:34;6.78;;;5.40;;
56051;SDS011;41919;42.648;23.384;2022-09-09T05:31:01;8.38;;;5.78;;
56051;SDS011;41919;42.648;23.384;2022-09-09T05:33:33;5.18;;;4.68;;
56051;SDS011;41919;42.648;23.384;2022-09-09T05:36:04;9.70;;;5.03;;
56051;SDS011;41919;42.648;23.384;2022-09-09T05:38:31;7.32;;;4.80;;
56051;SDS011;41919;42.648;23.384;2022-09-09T05:41:00;5.70;;;5.15;;
56051;SDS011;41919;42.648;23.384;2022-09-09T05:43:27;5.22;;;4.65;;
56051;SDS011;41919;42.648;23.384;2022-09-09T05:48:37;8.70;;;4.35;;
56051;SDS011;41919;42.648;23.384;2022-09-09T05:51:08;5.15;;;4.30;;
56051;SDS011;41919;42.648;23.384;2022-09-09T05:53:37;6.28;;;5.22;;
56051;SDS011;41919;42.648;23.384;2022-09-09T05:58:31;6.85;;;4.32;;
56051;SDS011;41919;42.648;23.384;2022-09-09T06:01:00;5.22;;;4.32;;
56051;SDS011;41919;42.648;23.384;2022-09-09T06:03:27;6.53;;;4.50;;
56051;SDS011;41919;42.648;23.384;2022-09-09T06:05:56;6.03;;;4.45;;
56051;SDS011;41919;42.648;23.384;2022-09-09T06:08:23;5.38;;;4.78;;
56051;SDS011;41919;42.648;23.384;2022-09-09T06:10:49;6.47;;;4.63;;
56051;SDS011;41919;42.648;23.384;2022-09-09T06:13:14;7.68;;;4.85;;
56051;SDS011;41919;42.648;23.384;2022-09-09T06:15:39;10.68;;;5.13;;
56051;SDS011;41919;42.648;23.384;2022-09-09T06:18:15;7.70;;;4.95;;
56051;SDS011;41919;42.648;23.384;2022-09-09T06:20:52;6.35;;;5.13;;
56051;SDS011;41919;42.648;23.384;2022-09-09T06:23:22;8.45;;;5.35;;
56051;SDS011;41919;42.648;23.384;2022-09-09T06:25:47;6.00;;;5.38;;
56051;SDS011;41919;42.648;23.384;2022-09-09T06:28:14;6.55;;;5.13;;
56051;SDS011;41919;42.648;23.384;2022-09-09T06:30:40;9.27;;;5.75;;
56051;SDS011;41919;42.648;23.384;2022-09-09T06:33:06;9.57;;;5.88;;
56051;SDS011;41919;42.648;23.384;2022-09-09T06:35:31;6.07;;;5.30;;
56051;SDS011;41919;42.648;23.384;2022-09-09T06:37:57;9.48;;;5.47;;
56051;SDS011;41919;42.648;23.384;2022-09-09T06:40:23;11.23;;;5.82;;
56051;SDS011;41919;42.648;23.384;2022-09-09T06:42:49;10.15;;;4.97;;
56051;SDS011;41919;42.648;23.384;2022-09-09T06:45:15;8.20;;;5.28;;
56051;SDS011;41919;42.648;23.384;2022-09-09T06:47:40;8.82;;;5.78;;
56051;SDS011;41919;42.648;23.384;2022-09-09T06:50:07;7.88;;;5.05;;
56051;SDS011;41919;42.648;23.384;2022-09-09T06:52:33;12.45;;;5.70;;
56051;SDS011;41919;42.648;23.384;2022-09-09T06:54:58;6.75;;;4.90;;
56051;SDS011;41919;42.648;23.384;2022-09-09T06:57:24;7.63;;;5.85;;
56051;SDS011;41919;42.648;23.384;2022-09-09T06:59:49;8.38;;;5.55;;
56051;SDS011;41919;42.648;23.384;2022-09-09T07:02:15;6.38;;;5.53;;
56051;SDS011;41919;42.648;23.384;2022-09-09T07:04:41;8.73;;;4.93;;
56051;SDS011;41919;42.648;23.384;2022-09-09T07:07:06;6.28;;;4.43;;
56051;SDS011;41919;42.648;23.384;2022-09-09T07:09:33;5.97;;;5.05;;
56051;SDS011;41919;42.648;23.384;2022-09-09T07:11:58;7.82;;;4.88;;
56051;SDS011;41919;42.648;23.384;2022-09-09T07:14:24;7.30;;;4.95;;
56051;SDS011;41919;42.648;23.384;2022-09-09T07:16:49;5.35;;;4.88;;
56051;SDS011;41919;42.648;23.384;2022-09-09T07:19:15;5.10;;;4.47;;
56051;SDS011;41919;42.648;23.384;2022-09-09T07:21:41;10.55;;;4.53;;
56051;SDS011;41919;42.648;23.384;2022-09-09T07:24:07;6.28;;;4.60;;
56051;SDS011;41919;42.648;23.384;2022-09-09T07:26:35;8.88;;;4.95;;
56051;SDS011;41919;42.648;23.384;2022-09-09T07:29:01;11.52;;;4.72;;
56051;SDS011;41919;42.648;23.384;2022-09-09T07:31:28;4.60;;;4.03;;
56051;SDS011;41919;42.648;23.384;2022-09-09T07:33:58;5.13;;;4.30;;
56051;SDS011;41919;42.648;23.384;2022-09-09T07:36:45;5.40;;;3.90;;
56051;SDS011;41919;42.648;23.384;2022-09-09T07:39:12;6.85;;;4.65;;
56051;SDS011;41919;42.648;23.384;2022-09-09T07:41:42;6.38;;;4.43;;
56051;SDS011;41919;42.648;23.384;2022-09-09T07:44:17;8.02;;;4.22;;
56051;SDS011;41919;42.648;23.384;2022-09-09T07:46:46;5.85;;;4.13;;
56051;SDS011;41919;42.648;23.384;2022-09-09T07:49:12;6.00;;;4.50;;
56051;SDS011;41919;42.648;23.384;2022-09-09T07:51:39;8.93;;;4.72;;
56051;SDS011;41919;42.648;23.384;2022-09-09T07:54:08;7.70;;;4.00;;
56051;SDS011;41919;42.648;23.384;2022-09-09T07:56:35;8.43;;;4.78;;
56051;SDS011;41919;42.648;23.384;2022-09-09T07:59:02;7.53;;;4.63;;
56051;SDS011;41919;42.648;23.384;2022-09-09T08:01:39;5.55;;;4.18;;
56051;SDS011;41919;42.648;23.384;2022-09-09T08:04:11;6.30;;;4.05;;
56051;SDS011;41919;42.648;23.384;2022-09-09T08:06:52;7.15;;;4.25;;
56051;SDS011;41919;42.648;23.384;2022-09-09T08:09:20;9.05;;;4.35;;
56051;SDS011;41919;42.648;23.384;2022-09-09T08:11:46;7.18;;;4.32;;
56051;SDS011;41919;42.648;23.384;2022-09-09T08:14:12;7.22;;;4.28;;
56051;SDS011;41919;42.648;23.384;2022-09-09T08:16:40;4.30;;;3.90;;
56051;SDS011;41919;42.648;23.384;2022-09-09T08:19:08;7.38;;;4.35;;
56051;SDS011;41919;42.648;23.384;2022-09-09T08:21:34;9.57;;;4.10;;
56051;SDS011;41919;42.648;23.384;2022-09-09T08:24:02;5.93;;;3.90;;
56051;SDS011;41919;42.648;23.384;2022-09-09T08:26:37;7.55;;;4.45;;
56051;SDS011;41919;42.648;23.384;2022-09-09T08:29:05;10.25;;;4.32;;
56051;SDS011;41919;42.648;23.384;2022-09-09T08:31:33;5.65;;;3.92;;
56051;SDS011;41919;42.648;23.384;2022-09-09T08:34:00;5.63;;;4.18;;
56051;SDS011;41919;42.648;23.384;2022-09-09T08:36:30;7.43;;;4.45;;
56051;SDS011;41919;42.648;23.384;2022-09-09T08:38:58;6.15;;;4.43;;
56051;SDS011;41919;42.648;23.384;2022-09-09T08:44:00;5.18;;;4.70;;
56051;SDS011;41919;42.648;23.384;2022-09-09T08:47:08;7.53;;;4.47;;
56051;SDS011;41919;42.648;23.384;2022-09-09T08:52:16;5.07;;;4.65;;
56051;SDS011;41919;42.648;23.384;2022-09-09T08:54:48;5.30;;;4.28;;
56051;SDS011;41919;42.648;23.384;2022-09-09T08:57:18;6.82;;;4.30;;
56051;SDS011;41919;42.648;23.384;2022-09-09T08:59:47;6.25;;;4.28;;
56051;SDS011;41919;42.648;23.384;2022-09-09T09:02:17;7.80;;;4.32;;
56051;SDS011;41919;42.648;23.384;2022-09-09T09:10:54;7.43;;;4.78;;
56051;SDS011;41919;42.648;23.384;2022-09-09T09:13:20;8.38;;;4.85;;
56051;SDS011;41919;42.648;23.384;2022-09-09T09:16:17;9.57;;;4.68;;
56051;SDS011;41919;42.648;23.384;2022-09-09T09:18:50;7.95;;;4.38;;
56051;SDS011;41919;42.648;23.384;2022-09-09T09:21:39;9.52;;;5.53;;
56051;SDS011;41919;42.648;23.384;2022-09-09T09:24:09;5.40;;;4.63;;
56051;SDS011;41919;42.648;23.384;2022-09-09T09:26:51;4.88;;;4.20;;
56051;SDS011;41919;42.648;23.384;2022-09-09T09:29:18;5.18;;;4.20;;
56051;SDS011;41919;42.648;23.384;2022-09-09T09:31:51;9.20;;;4.90;;
56051;SDS011;41919;42.648;23.384;2022-09-09T09:34:19;8.65;;;4.63;;
56051;SDS011;41919;42.648;23.384;2022-09-09T09:36:46;5.03;;;4.50;;
56051;SDS011;41919;42.648;23.384;2022-09-09T09:39:25;7.90;;;4.63;;
56051;SDS011;41919;42.648;23.384;2022-09-09T09:42:16;10.43;;;4.85;;
56051;SDS011;41919;42.648;23.384;2022-09-09T09:44:42;8.07;;;5.10;;
56051;SDS011;41919;42.648;23.384;2022-09-09T09:52:26;7.45;;;4.45;;
56051;SDS011;41919;42.648;23.384;2022-09-09T09:54:53;8.90;;;4.55;;
56051;SDS011;41919;42.648;23.384;2022-09-09T09:57:28;8.38;;;5.57;;
56051;SDS011;41919;42.648;23.384;2022-09-09T10:02:44;9.10;;;4.72;;
56051;SDS011;41919;42.648;23.384;2022-09-09T10:05:18;6.57;;;4.68;;
56051;SDS011;41919;42.648;23.384;2022-09-09T10:08:00;8.25;;;4.60;;
56051;SDS011;41919;42.648;23.384;2022-09-09T10:13:31;6.57;;;4.70;;
56051;SDS011;41919;42.648;23.384;2022-09-09T10:18:59;7.03;;;4.68;;
56051;SDS011;41919;42.648;23.384;2022-09-09T10:21:31;10.02;;;5.05;;
56051;SDS011;41919;42.648;23.384;2022-09-09T10:29:40;11.82;;;5.22;;
56051;SDS011;41919;42.648;23.384;2022-09-09T10:54:12;7.53;;;5.15;;
56051;SDS011;41919;42.648;23.384;2022-09-09T10:56:42;11.07;;;5.38;;
56051;SDS011;41919;42.648;23.384;2022-09-09T10:59:15;12.32;;;5.55;;
56051;SDS011;41919;42.648;23.384;2022-09-09T11:04:42;10.68;;;5.30;;
56051;SDS011;41919;42.648;23.384;2022-09-09T11:07:17;8.30;;;5.18;;
56051;SDS011;41919;42.648;23.384;2022-09-09T11:10:11;7.97;;;5.30;;
56051;SDS011;41919;42.648;23.384;2022-09-09T11:12:45;7.93;;;5.32;;
56051;SDS011;41919;42.648;23.384;2022-09-09T11:15:15;9.77;;;5.10;;
56051;SDS011;41919;42.648;23.384;2022-09-09T11:17:50;10.27;;;5.18;;
56051;SDS011;41919;42.648;23.384;2022-09-09T11:20:20;9.23;;;5.45;;
56051;SDS011;41919;42.648;23.384;2022-09-09T11:30:19;6.70;;;5.22;;
56051;SDS011;41919;42.648;23.384;2022-09-09T11:35:47;8.27;;;5.88;;
56051;SDS011;41919;42.648;23.384;2022-09-09T11:40:57;6.40;;;5.68;;
56051;SDS011;41919;42.648;23.384;2022-09-09T11:46:03;7.32;;;5.40;;
56051;SDS011;41919;42.648;23.384;2022-09-09T11:48:32;7.32;;;5.43;;
56051;SDS011;41919;42.648;23.384;2022-09-09T11:51:04;10.00;;;5.80;;
56051;SDS011;41919;42.648;23.384;2022-09-09T11:53:32;7.70;;;6.13;;
56051;SDS011;41919;42.648;23.384;2022-09-09T11:56:02;10.63;;;5.97;;
56051;SDS011;41919;42.648;23.384;2022-09-09T11:58:30;12.70;;;7.85;;
56051;SDS011;41919;42.648;23.384;2022-09-09T12:01:12;8.05;;;6.68;;
56051;SDS011;41919;42.648;23.384;2022-09-09T12:03:47;5.85;;;5.25;;
56051;SDS011;41919;42.648;23.384;2022-09-09T12:06:41;8.32;;;5.47;;
56051;SDS011;41919;42.648;23.384;2022-09-09T12:09:12;15.82;;;6.40;;
56051;SDS011;41919;42.648;23.384;2022-09-09T12:11:48;10.52;;;6.45;;
56051;SDS011;41919;42.648;23.384;2022-09-09T12:14:34;10.93;;;6.10;;
56051;SDS011;41919;42.648;23.384;2022-09-09T12:17:20;9.18;;;6.00;;
56051;SDS011;41919;42.648;23.384;2022-09-09T12:19:48;8.90;;;5.78;;
56051;SDS011;41919;42.648;23.384;2022-09-09T12:22:37;6.03;;;5.43;;
56051;SDS011;41919;42.648;23.384;2022-09-09T12:28:09;11.85;;;6.40;;
56051;SDS011;41919;42.648;23.384;2022-09-09T12:30:44;8.23;;;5.95;;
56051;SDS011;41919;42.648;23.384;2022-09-09T12:33:34;8.63;;;5.93;;
56051;SDS011;41919;42.648;23.384;2022-09-09T12:36:01;10.98;;;6.40;;
56051;SDS011;41919;42.648;23.384;2022-09-09T12:38:34;6.57;;;5.65;;
56051;SDS011;41919;42.648;23.384;2022-09-09T12:41:01;7.20;;;5.75;;
56051;SDS011;41919;42.648;23.384;2022-09-09T12:43:28;8.73;;;5.95;;
56051;SDS011;41919;42.648;23.384;2022-09-09T12:45:59;12.60;;;5.75;;
56051;SDS011;41919;42.648;23.384;2022-09-09T12:48:47;7.93;;;5.55;;
56051;SDS011;41919;42.648;23.384;2022-09-09T12:51:31;11.13;;;6.13;;
56051;SDS011;41919;42.648;23.384;2022-09-09T12:53:58;14.10;;;6.15;;
56051;SDS011;41919;42.648;23.384;2022-09-09T12:56:29;10.85;;;6.30;;
56051;SDS011;41919;42.648;23.384;2022-09-09T12:58:57;10.32;;;6.38;;
56051;SDS011;41919;42.648;23.384;2022-09-09T13:03:50;12.23;;;6.05;;
56051;SDS011;41919;42.648;23.384;2022-09-09T13:06:27;10.18;;;6.40;;
56051;SDS011;41919;42.648;23.384;2022-09-09T13:08:55;9.80;;;6.20;;
56051;SDS011;41919;42.648;23.384;2022-09-09T13:11:23;8.68;;;5.63;;
56051;SDS011;41919;42.648;23.384;2022-09-09T13:13:54;12.73;;;6.65;;
56051;SDS011;41919;42.648;23.384;2022-09-09T13:16:23;11.55;;;6.10;;
56051;SDS011;41919;42.648;23.384;2022-09-09T13:18:55;12.23;;;5.82;;
56051;SDS011;41919;42.648;23.384;2022-09-09T13:21:30;12.23;;;6.10;;
56051;SDS011;41919;42.648;23.384;2022-09-09T13:23:57;11.52;;;7.90;;
56051;SDS011;41919;42.648;23.384;2022-09-09T13:26:28;12.50;;;6.13;;
56051;SDS011;41919;42.648;23.384;2022-09-09T13:28:55;14.02;;;6.32;;
56051;SDS011;41919;42.648;23.384;2022-09-09T13:31:33;12.50;;;6.50;;
56051;SDS011;41919;42.648;23.384;2022-09-09T13:34:10;11.77;;;6.13;;
56051;SDS011;41919;42.648;23.384;2022-09-09T13:36:38;12.15;;;6.07;;
56051;SDS011;41919;42.648;23.384;2022-09-09T13:39:04;9.50;;;5.90;;
56051;SDS011;41919;42.648;23.384;2022-09-09T13:41:34;16.55;;;6.10;;
56051;SDS011;41919;42.648;23.384;2022-09-09T13:44:25;12.35;;;6.35;;
56051;SDS011;41919;42.648;23.384;2022-09-09T13:47:00;11.60;;;6.68;;
56051;SDS011;41919;42.648;23.384;2022-09-09T13:49:29;11.65;;;6.50;;
56051;SDS011;41919;42.648;23.384;2022-09-09T13:52:14;11.07;;;6.13;;
56051;SDS011;41919;42.648;23.384;2022-09-09T13:54:42;8.70;;;6.22;;
56051;SDS011;41919;42.648;23.384;2022-09-09T13:57:15;18.10;;;6.97;;
56051;SDS011;41919;42.648;23.384;2022-09-09T13:59:43;9.05;;;6.50;;
56051;SDS011;41919;42.648;23.384;2022-09-09T14:02:09;12.80;;;6.85;;
56051;SDS011;41919;42.648;23.384;2022-09-09T14:04:34;10.45;;;6.00;;
56051;SDS011;41919;42.648;23.384;2022-09-09T14:07:00;13.57;;;6.57;;
56051;SDS011;41919;42.648;23.384;2022-09-09T14:09:26;11.75;;;6.22;;
56051;SDS011;41919;42.648;23.384;2022-09-09T14:11:52;9.23;;;5.85;;
56051;SDS011;41919;42.648;23.384;2022-09-09T14:14:17;13.13;;;7.03;;
56051;SDS011;41919;42.648;23.384;2022-09-09T14:16:43;10.93;;;6.28;;
56051;SDS011;41919;42.648;23.384;2022-09-09T14:19:09;10.32;;;6.47;;
56051;SDS011;41919;42.648;23.384;2022-09-09T14:21:35;10.02;;;6.07;;
56051;SDS011;41919;42.648;23.384;2022-09-09T14:24:00;14.13;;;6.28;;
56051;SDS011;41919;42.648;23.384;2022-09-09T14:26:26;8.30;;;5.95;;
56051;SDS011;41919;42.648;23.384;2022-09-09T14:28:53;10.68;;;5.75;;
56051;SDS011;41919;42.648;23.384;2022-09-09T14:31:19;17.80;;;6.25;;
56051;SDS011;41919;42.648;23.384;2022-09-09T14:33:44;10.68;;;6.00;;
56051;SDS011;41919;42.648;23.384;2022-09-09T14:36:10;10.40;;;6.50;;
56051;SDS011;41919;42.648;23.384;2022-09-09T14:38:37;12.00;;;6.20;;
56051;SDS011;41919;42.648;23.384;2022-09-09T14:41:05;13.52;;;6.70;;
56051;SDS011;41919;42.648;23.384;2022-09-09T14:43:31;17.73;;;6.25;;
56051;SDS011;41919;42.648;23.384;2022-09-09T14:45:57;13.07;;;6.30;;
56051;SDS011;41919;42.648;23.384;2022-09-09T14:48:30;11.32;;;6.32;;
56051;SDS011;41919;42.648;23.384;2022-09-09T14:50:56;9.75;;;6.45;;
56051;SDS011;41919;42.648;23.384;2022-09-09T14:53:21;15.88;;;6.03;;
56051;SDS011;41919;42.648;23.384;2022-09-09T14:55:46;10.02;;;5.82;;
56051;SDS011;41919;42.648;23.384;2022-09-09T14:58:12;11.05;;;6.03;;
56051;SDS011;41919;42.648;23.384;2022-09-09T15:00:38;8.82;;;6.25;;
56051;SDS011;41919;42.648;23.384;2022-09-09T15:03:04;9.30;;;6.50;;
56051;SDS011;41919;42.648;23.384;2022-09-09T15:05:29;13.10;;;6.07;;
56051;SDS011;41919;42.648;23.384;2022-09-09T15:07:56;10.23;;;6.03;;
56051;SDS011;41919;42.648;23.384;2022-09-09T15:10:23;10.70;;;6.35;;
56051;SDS011;41919;42.648;23.384;2022-09-09T15:12:49;7.70;;;5.88;;
56051;SDS011;41919;42.648;23.384;2022-09-09T15:15:14;10.20;;;5.97;;
56051;SDS011;41919;42.648;23.384;2022-09-09T15:17:40;11.38;;;6.18;;
56051;SDS011;41919;42.648;23.384;2022-09-09T15:20:05;13.77;;;8.10;;
56051;SDS011;41919;42.648;23.384;2022-09-09T15:22:31;12.30;;;7.38;;
56051;SDS011;41919;42.648;23.384;2022-09-09T15:24:58;14.32;;;7.60;;
56051;SDS011;41919;42.648;23.384;2022-09-09T15:27:24;8.90;;;6.30;;
56051;SDS011;41919;42.648;23.384;2022-09-09T15:29:49;9.93;;;5.88;;
56051;SDS011;41919;42.648;23.384;2022-09-09T15:32:16;10.05;;;6.22;;
56051;SDS011;41919;42.648;23.384;2022-09-09T15:34:42;10.65;;;5.95;;
56051;SDS011;41919;42.648;23.384;2022-09-09T15:37:09;10.65;;;6.15;;
56051;SDS011;41919;42.648;23.384;2022-09-09T15:39:37;12.75;;;5.93;;
56051;SDS011;41919;42.648;23.384;2022-09-09T15:42:03;9.25;;;5.50;;
56051;SDS011;41919;42.648;23.384;2022-09-09T15:44:29;8.73;;;6.05;;
56051;SDS011;41919;42.648;23.384;2022-09-09T15:46:54;12.05;;;6.15;;
56051;SDS011;41919;42.648;23.384;2022-09-09T15:49:20;11.52;;;6.25;;
56051;SDS011;41919;42.648;23.384;2022-09-09T15:51:54;10.05;;;6.28;;
56051;SDS011;41919;42.648;23.384;2022-09-09T15:54:22;11.60;;;6.53;;
56051;SDS011;41919;42.648;23.384;2022-09-09T15:56:50;8.15;;;5.90;;
56051;SDS011;41919;42.648;23.384;2022-09-09T15:59:24;9.48;;;5.97;;
56051;SDS011;41919;42.648;23.384;2022-09-09T16:01:51;8.43;;;6.03;;
56051;SDS011;41919;42.648;23.384;2022-09-09T16:04:17;9.88;;;6.03;;
56051;SDS011;41919;42.648;23.384;2022-09-09T16:06:55;8.65;;;6.20;;
56051;SDS011;41919;42.648;23.384;2022-09-09T16:09:23;11.90;;;6.47;;
56051;SDS011;41919;42.648;23.384;2022-09-09T16:11:49;7.82;;;6.07;;
56051;SDS011;41919;42.648;23.384;2022-09-09T16:14:15;11.90;;;6.22;;
56051;SDS011;41919;42.648;23.384;2022-09-09T16:16:41;10.00;;;5.80;;
56051;SDS011;41919;42.648;23.384;2022-09-09T16:19:08;10.02;;;6.43;;
56051;SDS011;41919;42.648;23.384;2022-09-09T16:21:37;10.32;;;6.20;;
56051;SDS011;41919;42.648;23.384;2022-09-09T16:24:08;9.05;;;6.22;;
56051;SDS011;41919;42.648;23.384;2022-09-09T16:26:36;10.10;;;6.03;;
56051;SDS011;41919;42.648;23.384;2022-09-09T16:29:04;8.45;;;6.07;;
56051;SDS011;41919;42.648;23.384;2022-09-09T16:31:30;11.48;;;6.13;;
56051;SDS011;41919;42.648;23.384;2022-09-09T16:33:57;9.77;;;5.82;;
56051;SDS011;41919;42.648;23.384;2022-09-09T16:36:27;12.48;;;6.53;;
56051;SDS011;41919;42.648;23.384;2022-09-09T16:38:57;17.40;;;10.55;;
56051;SDS011;41919;42.648;23.384;2022-09-09T16:41:25;13.25;;;7.55;;
56051;SDS011;41919;42.648;23.384;2022-09-09T16:43:56;8.52;;;6.50;;
56051;SDS011;41919;42.648;23.384;2022-09-09T16:46:24;13.18;;;6.97;;
56051;SDS011;41919;42.648;23.384;2022-09-09T16:48:51;9.80;;;6.25;;
56051;SDS011;41919;42.648;23.384;2022-09-09T16:51:19;10.75;;;6.57;;
56051;SDS011;41919;42.648;23.384;2022-09-09T16:53:46;16.60;;;6.70;;
56051;SDS011;41919;42.648;23.384;2022-09-09T16:56:12;10.45;;;6.28;;
56051;SDS011;41919;42.648;23.384;2022-09-09T16:58:41;14.32;;;7.05;;
56051;SDS011;41919;42.648;23.384;2022-09-09T17:01:10;10.40;;;7.22;;
56051;SDS011;41919;42.648;23.384;2022-09-09T17:03:39;17.45;;;7.53;;
56051;SDS011;41919;42.648;23.384;2022-09-09T17:06:12;14.88;;;8.32;;